CheckWX is a tool to help pilots better visualize weather data.  It is not intended as a substitute for an official pre-flight weather briefing.

01:11:47 UTC

KMRF METAR
Marfa Municipal Airport
Marfa, Texas, USA
Current

16 mins ago

KMRF 200056Z AUTO 15009KT 10SM CLR 32/08 A3004 RMK AO2 SLP105 T03220078
Observed
Jul-20 @ 00:56 UTC
Wind
  • 150° at 9 KTS
Visibility
10 SM
Flight Rules
VFR
Cloud Levels
  • Clear skies
Temperature
32°C / 90°F
Dewpoint
C / 46°F
Humidity
22%
Altimeter
30.04" Hg
Pressure
1017.32 hPa
Previous

1 hour ago

KMRF 192356Z AUTO 12005KT 10SM CLR 33/07 A3003 RMK AO2 SLP106 T03280072 10339 20306 55011
Observed
Jul-19 @ 23:56 UTC
Wind
  • 120° at 5 KTS
Visibility
10 SM
Flight Rules
VFR
Cloud Levels
  • Clear skies
Temperature
33°C / 91°F
Dewpoint
C / 45°F
Humidity
20%
Altimeter
30.03" Hg
Pressure
1016.92 hPa
Previous

2 hours ago

KMRF 192256Z AUTO 16010G19KT 10SM CLR 34/10 A3003 RMK AO2 SLP099 T03390100
Observed
Jul-19 @ 22:56 UTC
Wind
  • 160° at 10 KTS
  • Gusting to 19 KTS
Visibility
10 SM
Flight Rules
VFR
Cloud Levels
  • Clear skies
Temperature
34°C / 93°F
Dewpoint
10°C / 50°F
Humidity
23%
Altimeter
30.03" Hg
Pressure
1016.92 hPa